• Join FlightAware (Why Join?)
  • Login
  • US Flag 
06:43PM EDT


 

Airport Tracker/Info


-or-


 

Live Flight TrackerFlight Track Log ✈ N319EE ✈ 10-Oct-2013 ✈ KROC - KPWM

Flight Track Log - Related Links

Times and Time Zones

All times are in EDT time to prevent confusion due to time zone crossing. See the N319EE flight status page for this flight to view local times or setup timezone preferences in your user account.

Time Position Orientation Groundspeed Altitude Reporting Facility
EDT Latitude Longitude Course Direction KTS MPH feet Rate Location/Type
01:18PM 43.0611 -77.7244 214° Southwest 174 200 2,600  Level Cleveland Center
01:18PM 43.0444 -77.7378 210° Southwest 174 200 3,300 1,740 Climbing Cleveland Center
01:19PM 43.0050 -77.7269 169° South 185 213 5,000 1,560 Climbing Cleveland Center
01:20PM 43.0131 -77.6625 80° East 175 201 6,600 1,500 Climbing Cleveland Center
01:21PM 43.0206 -77.5953 81° East 178 205 8,200 1,740 Climbing Cleveland Center
01:22PM 43.0278 -77.5269 82° East 182 209 10,200 1,320 Climbing Cleveland Center
01:23PM 43.0361 -77.4389 83° East 199 229 11,000 360 Climbing Cleveland Center
01:24PM 43.0467 -77.3417 82° East 253 291 11,000  Level Cleveland Center
01:25PM 43.0567 -77.2425 82° East 262 302 11,000 240 Level Cleveland Center
01:26PM 43.0667 -77.1450 82° East 261 300 11,500 720 Climbing Cleveland Center
01:27PM 43.0764 -77.0556 82° East 242 278 12,600 720 Climbing Cleveland Center
01:28PM 43.0853 -76.9683 82° East 233 268 13,000 180 Climbing Cleveland Center
01:29PM 43.0978 -76.8519 82° East 255 293 13,000  Level Cleveland Center
01:30PM 43.1072 -76.7528 83° East 262 302 13,000  Level Cleveland Center
01:32PM 43.1178 -76.6589 81° East 264 304 13,100 480 Climbing Cleveland Center
01:33PM 43.1261 -76.5636 83° East 255 293 14,000 420 Climbing Cleveland Center
01:34PM 43.1344 -76.4678 83° East 254 292 14,000  Level Cleveland Center
01:35PM 43.1467 -76.3464 82° East 266 306 14,000 480 Level Cleveland Center
01:36PM 43.1556 -76.2525 83° East 256 295 15,000 480 Climbing Cleveland Center
01:37PM 43.1644 -76.1567 83° East 253 291 15,000 -60 Level Cleveland Center
01:38PM 43.1722 -76.0583 84° East 259 298 14,900  Descending Cleveland Center
01:39PM 43.1797 -75.9608 84° East 260 299 15,000  Climbing Cleveland Center
01:40PM 43.1889 -75.8633 83° East 254 292 15,000  Level Boston Center
01:41PM 43.1981 -75.7642 83° East 254 292 15,000  Level Boston Center
01:42PM 43.2050 -75.6675 84° East 254 292 15,000  Level Boston Center
01:43PM 43.2119 -75.5711 84° East 254 292 15,000  Level Boston Center
01:44PM 43.2186 -75.4744 85° East 254 292 15,000 -60 Level Boston Center
01:45PM 43.2253 -75.3781 85° East 249 287 14,900  Descending Boston Center
01:46PM 43.2325 -75.2672 85° East 254 292 15,000  Climbing Boston Center
01:47PM 43.2411 -75.1706 83° East 254 292 14,900  Descending Boston Center
01:48PM 43.2494 -75.0742 83° East 254 292 15,000  Climbing Boston Center
01:49PM 43.2558 -74.9775 85° East 254 292 15,000  Level Boston Center
01:50PM 43.2622 -74.8808 85° East 254 292 15,000 -60 Level Boston Center
01:51PM 43.2683 -74.7839 85° East 254 292 14,900 -60 Descending Boston Center
01:52PM 43.2764 -74.6872 83° East 254 292 14,900  Level Boston Center
01:53PM 43.2825 -74.5906 85° East 254 292 14,900  Level Boston Center
01:54PM 43.2886 -74.4939 85° East 254 292 14,900  Level Boston Center
01:55PM 43.2944 -74.3969 85° East 249 287 15,000  Climbing Boston Center
01:56PM 43.3000 -74.3086 85° East 254 292 15,000  Level Boston Center
01:57PM 43.3058 -74.2033 86° East 254 292 15,000  Level Boston Center
01:58PM 43.3114 -74.1150 85° East 254 292 15,000  Level Boston Center
01:59PM 43.3192 -74.0097 84° East 254 292 15,000  Level Boston Center
02:00PM 43.3244 -73.9214 85° East 254 292 15,000  Level Boston Center
02:01PM 43.3297 -73.8244 86° East 254 292 15,000  Level Boston Center
02:02PM 43.3372 -73.7189 84° East 254 292 15,000  Level Boston Center
02:03PM 43.3403 -73.6306 87° East 254 292 15,000  Level Boston Center
02:04PM 43.3497 -73.5222 83° East 254 292 15,000  Level Boston Center
02:05PM 43.3528 -73.4336 87° East 254 292 15,000  Level Boston Center
02:06PM 43.3597 -73.3253 85° East 254 292 15,000  Level Boston Center
02:07PM 43.3647 -73.2397 85° East 254 292 15,000  Level Boston Center
02:08PM 43.3694 -73.1314 87° East 254 292 15,000  Level Boston Center
02:09PM 43.3761 -73.0428 84° East 254 292 15,000  Level Boston Center
02:10PM 43.3831 -72.9458 84° East 254 292 15,000  Level Boston Center
02:11PM 43.3897 -72.8431 85° East 254 292 15,000  Level Boston Center
02:12PM 43.3942 -72.7486 86° East 254 292 15,000  Level Boston Center
02:13PM 43.3983 -72.6458 87° East 254 292 15,000  Level Boston Center
02:14PM 43.4028 -72.5486 86° East 254 292 15,000  Level Boston Center
02:15PM 43.4092 -72.4458 85° East 254 292 15,000  Level Boston Center
02:16PM 43.4133 -72.3458 87° East 254 292 15,000  Level Boston Center
02:17PM 43.4194 -72.2458 85° East 254 292 15,000  Level Boston Center
02:18PM 43.4233 -72.1486 87° East 254 292 15,000  Level Boston Center
02:19PM 43.4272 -72.0483 87° East 254 292 15,000  Level Boston Center
02:20PM 43.4308 -71.9483 87° East 254 292 15,000  Level Boston Center
02:21PM 43.4347 -71.8369 87° East 254 292 15,000  Level Boston Center
02:22PM 43.4403 -71.7394 85° East 254 292 15,000  Level Boston Center
02:23PM 43.4439 -71.6367 87° East 254 292 15,000  Level Boston Center
02:24PM 43.4492 -71.5364 86° East 254 292 15,000 -60 Level Boston Center
02:25PM 43.4525 -71.4333 87° East 254 292 14,900 -720 Descending Boston Center
02:26PM 43.4558 -71.3275 87° East 268 308 13,600 -1,500 Descending Boston Center
02:27PM 43.4608 -71.2131 87° East 290 334 12,000 -1,320 Descending Boston Center
02:28PM 43.4764 -71.1069 79° East 290 334 11,000 -540 Descending Boston Center
02:29PM 43.4981 -71.0175 72° East 264 304 11,000 -660 Level Boston Center
02:30PM 43.5200 -70.9369 69° East 247 284 9,700 -1,740 Descending Boston Center
02:31PM 43.5456 -70.8244 73° East 263 303 7,600 -2,040 Descending Boston Center
02:32PM 43.5650 -70.7236 75° East 270 311 5,700 -1,740 Descending Boston Center
02:33PM 43.5656 -70.6264 90° East 259 298 4,200 -900 Descending Boston Center
02:34PM 43.5642 -70.5375 91° East 238 274 4,000 -180 Descending Boston Center
02:35PM 43.5631 -70.4658 91° East 215 247 3,900 -720 Descending Boston Center
02:36PM 43.5886 -70.3819 67° East 209 241 2,600 -1,140 Descending Boston Center
02:37PM 43.6000 -70.3300 73° East 198 228 1,700 -960 Descending Boston Center
02:38PM 43.6303 -70.2772 52° Northeast 147 169 700 4,560 Descending Boston Center
02:39PM 43.6556 -70.2906 339° North 102 117 11,000 5,160 Climbing Boston Center
02:40PM 43.6828 -70.2983 348° North 102 117 11,000  Level Boston Center
02:41PM 43.7081 -70.3031 352° North 102 117 11,000  Level Boston Center